sensor_id;sensor_type;location;lat;lon;timestamp;pressure;altitude;pressure_sealevel;temperature;humidity
48790;BME280;41718;51.980;5.734;2022-12-26T00:00:08;100635.22;;;7.77;100.00
48790;BME280;41718;51.980;5.734;2022-12-26T00:05:12;100637.81;;;7.79;100.00
48790;BME280;41718;51.980;5.734;2022-12-26T00:10:13;100628.31;;;7.76;100.00
48790;BME280;41718;51.980;5.734;2022-12-26T00:15:15;100642.09;;;7.78;100.00
48790;BME280;41718;51.980;5.734;2022-12-26T00:20:16;100637.84;;;7.80;100.00
48790;BME280;41718;51.980;5.734;2022-12-26T00:25:18;100637.78;;;7.77;100.00
48790;BME280;41718;51.980;5.734;2022-12-26T00:30:19;100624.94;;;7.79;100.00
48790;BME280;41718;51.980;5.734;2022-12-26T00:35:21;100629.25;;;7.80;100.00
48790;BME280;41718;51.980;5.734;2022-12-26T00:40:22;100654.25;;;7.84;100.00
48790;BME280;41718;51.980;5.734;2022-12-26T00:45:24;100655.13;;;7.84;100.00
48790;BME280;41718;51.980;5.734;2022-12-26T00:50:25;100659.47;;;7.88;100.00
48790;BME280;41718;51.980;5.734;2022-12-26T00:55:34;100662.91;;;7.87;100.00
48790;BME280;41718;51.980;5.734;2022-12-26T01:00:36;100671.56;;;7.91;100.00
48790;BME280;41718;51.980;5.734;2022-12-26T01:05:42;100668.19;;;7.93;100.00
48790;BME280;41718;51.980;5.734;2022-12-26T01:10:45;100668.25;;;7.96;100.00
48790;BME280;41718;51.980;5.734;2022-12-26T01:15:51;100673.38;;;7.95;100.00
48790;BME280;41718;51.980;5.734;2022-12-26T01:21:00;100681.16;;;7.96;100.00
48790;BME280;41718;51.980;5.734;2022-12-26T01:26:05;100688.00;;;7.96;100.00
48790;BME280;41718;51.980;5.734;2022-12-26T01:31:20;100677.69;;;7.96;100.00
48790;BME280;41718;51.980;5.734;2022-12-26T01:36:23;100679.47;;;7.98;100.00
48790;BME280;41718;51.980;5.734;2022-12-26T01:41:24;100671.63;;;7.94;100.00
48790;BME280;41718;51.980;5.734;2022-12-26T01:46:37;100674.19;;;7.94;100.00
48790;BME280;41718;51.980;5.734;2022-12-26T01:51:42;100673.28;;;7.90;100.00
48790;BME280;41718;51.980;5.734;2022-12-26T01:56:46;100672.47;;;7.93;100.00
48790;BME280;41718;51.980;5.734;2022-12-26T02:01:49;100675.84;;;7.89;100.00
48790;BME280;41718;51.980;5.734;2022-12-26T02:06:53;100674.94;;;7.88;100.00
48790;BME280;41718;51.980;5.734;2022-12-26T02:12:03;100674.03;;;7.86;100.00
48790;BME280;41718;51.980;5.734;2022-12-26T02:17:29;100674.03;;;7.86;100.00
48790;BME280;41718;51.980;5.734;2022-12-26T02:27:57;100671.47;;;7.86;100.00
48790;BME280;41718;51.980;5.734;2022-12-26T02:33:16;100668.84;;;7.83;100.00
48790;BME280;41718;51.980;5.734;2022-12-26T02:38:46;100673.03;;;7.80;100.00
48790;BME280;41718;51.980;5.734;2022-12-26T02:49:15;100688.44;;;7.78;100.00
48790;BME280;41718;51.980;5.734;2022-12-26T02:54:26;100690.16;;;7.78;100.00
48790;BME280;41718;51.980;5.734;2022-12-26T02:59:48;100690.16;;;7.78;100.00
48790;BME280;41718;51.980;5.734;2022-12-26T03:05:35;100681.41;;;7.71;100.00
48790;BME280;41718;51.980;5.734;2022-12-26T03:10:57;100672.75;;;7.67;100.00
48790;BME280;41718;51.980;5.734;2022-12-26T03:16:18;100675.13;;;7.60;100.00
48790;BME280;41718;51.980;5.734;2022-12-26T03:21:50;100679.50;;;7.62;100.00
48790;BME280;41718;51.980;5.734;2022-12-26T03:26:53;100662.34;;;7.63;100.00
48790;BME280;41718;51.980;5.734;2022-12-26T03:31:55;100669.25;;;7.65;100.00
48790;BME280;41718;51.980;5.734;2022-12-26T03:42:45;100683.78;;;7.63;100.00
48790;BME280;41718;51.980;5.734;2022-12-26T03:48:20;100685.50;;;7.63;100.00
48790;BME280;41718;51.980;5.734;2022-12-26T03:53:54;100693.34;;;7.67;100.00
48790;BME280;41718;51.980;5.734;2022-12-26T03:59:24;100683.88;;;7.66;100.00
48790;BME280;41718;51.980;5.734;2022-12-26T04:04:48;100682.22;;;7.68;100.00
48790;BME280;41718;51.980;5.734;2022-12-26T04:10:14;100694.25;;;7.69;100.00
48790;BME280;41718;51.980;5.734;2022-12-26T04:15:53;100706.28;;;7.70;100.00
48790;BME280;41718;51.980;5.734;2022-12-26T04:21:25;100711.50;;;7.74;100.00
48790;BME280;41718;51.980;5.734;2022-12-26T04:26:52;100699.38;;;7.69;100.00
48790;BME280;41718;51.980;5.734;2022-12-26T04:32:28;100706.28;;;7.70;100.00
48790;BME280;41718;51.980;5.734;2022-12-26T04:37:54;100731.16;;;7.70;100.00
48790;BME280;41718;51.980;5.734;2022-12-26T04:43:16;100719.16;;;7.70;100.00
48790;BME280;41718;51.980;5.734;2022-12-26T04:48:52;100702.00;;;7.71;100.00
48790;BME280;41718;51.980;5.734;2022-12-26T04:54:13;100707.13;;;7.71;100.00
48790;BME280;41718;51.980;5.734;2022-12-26T04:59:15;100701.03;;;7.66;100.00
48790;BME280;41718;51.980;5.734;2022-12-26T05:04:17;100675.47;;;7.74;100.00
48790;BME280;41718;51.980;5.734;2022-12-26T05:09:38;100687.25;;;7.64;100.00
48790;BME280;41718;51.980;5.734;2022-12-26T05:14:39;100676.91;;;7.62;100.00
48790;BME280;41718;51.980;5.734;2022-12-26T05:19:41;100683.81;;;7.65;100.00
48790;BME280;41718;51.980;5.734;2022-12-26T05:25:01;100677.78;;;7.63;100.00
48790;BME280;41718;51.980;5.734;2022-12-26T05:30:22;100675.84;;;7.54;100.00
48790;BME280;41718;51.980;5.734;2022-12-26T05:35:23;100678.28;;;7.48;100.00
48790;BME280;41718;51.980;5.734;2022-12-26T05:40:24;100682.63;;;7.51;100.00
48790;BME280;41718;51.980;5.734;2022-12-26T05:45:26;100704.88;;;7.49;100.00
48790;BME280;41718;51.980;5.734;2022-12-26T05:50:28;100707.56;;;7.53;100.00
48790;BME280;41718;51.980;5.734;2022-12-26T05:55:29;100697.97;;;7.46;100.00
48790;BME280;41718;51.980;5.734;2022-12-26T06:00:31;100669.50;;;7.40;100.00
48790;BME280;41718;51.980;5.734;2022-12-26T06:05:33;100671.13;;;7.36;100.00
48790;BME280;41718;51.980;5.734;2022-12-26T06:10:34;100675.34;;;7.33;100.00
48790;BME280;41718;51.980;5.734;2022-12-26T06:15:37;100680.34;;;7.27;100.00
48790;BME280;41718;51.980;5.734;2022-12-26T06:20:39;100680.91;;;7.16;100.00
48790;BME280;41718;51.980;5.734;2022-12-26T06:25:40;100681.78;;;7.17;100.00
48790;BME280;41718;51.980;5.734;2022-12-26T06:30:42;100677.34;;;7.11;100.00
48790;BME280;41718;51.980;5.734;2022-12-26T06:35:43;100683.25;;;7.07;100.00
48790;BME280;41718;51.980;5.734;2022-12-26T06:40:45;100685.06;;;7.11;100.00
48790;BME280;41718;51.980;5.734;2022-12-26T06:45:56;100696.09;;;7.07;100.00
48790;BME280;41718;51.980;5.734;2022-12-26T06:51:03;100701.97;;;7.02;100.00
48790;BME280;41718;51.980;5.734;2022-12-26T06:56:14;100713.91;;;7.00;100.00
48790;BME280;41718;51.980;5.734;2022-12-26T07:01:17;100709.84;;;7.08;100.00
48790;BME280;41718;51.980;5.734;2022-12-26T07:06:31;100712.25;;;7.02;100.00
48790;BME280;41718;51.980;5.734;2022-12-26T07:11:35;100714.22;;;7.10;100.00
48790;BME280;41718;51.980;5.734;2022-12-26T07:16:38;100731.88;;;6.98;100.00
48790;BME280;41718;51.980;5.734;2022-12-26T07:21:41;100724.88;;;6.93;100.00
48790;BME280;41718;51.980;5.734;2022-12-26T07:26:44;100725.22;;;7.06;100.00
48790;BME280;41718;51.980;5.734;2022-12-26T07:31:45;100740.47;;;6.99;100.00
48790;BME280;41718;51.980;5.734;2022-12-26T07:36:47;100737.97;;;7.02;100.00
48790;BME280;41718;51.980;5.734;2022-12-26T07:41:48;100726.97;;;7.07;100.00
48790;BME280;41718;51.980;5.734;2022-12-26T07:46:59;100731.25;;;7.07;100.00
48790;BME280;41718;51.980;5.734;2022-12-26T07:52:01;100722.06;;;7.15;100.00
48790;BME280;41718;51.980;5.734;2022-12-26T07:57:03;100723.81;;;7.17;100.00
48790;BME280;41718;51.980;5.734;2022-12-26T08:02:30;100732.59;;;7.26;100.00
48790;BME280;41718;51.980;5.734;2022-12-26T08:07:32;100734.28;;;7.24;100.00
48790;BME280;41718;51.980;5.734;2022-12-26T08:12:34;100742.44;;;7.40;100.00
48790;BME280;41718;51.980;5.734;2022-12-26T08:17:36;100738.09;;;7.38;100.00
48790;BME280;41718;51.980;5.734;2022-12-26T08:22:37;100737.53;;;7.50;100.00
48790;BME280;41718;51.980;5.734;2022-12-26T08:27:39;100737.16;;;7.69;100.00
48790;BME280;41718;51.980;5.734;2022-12-26T08:32:42;100735.47;;;7.71;100.00
48790;BME280;41718;51.980;5.734;2022-12-26T08:37:46;100745.81;;;7.73;100.00
48790;BME280;41718;51.980;5.734;2022-12-26T08:42:48;100730.44;;;7.76;100.00
48790;BME280;41718;51.980;5.734;2022-12-26T08:48:09;100728.88;;;7.82;100.00
48790;BME280;41718;51.980;5.734;2022-12-26T08:53:11;100751.25;;;7.83;100.00
48790;BME280;41718;51.980;5.734;2022-12-26T08:58:12;100746.16;;;7.88;100.00
48790;BME280;41718;51.980;5.734;2022-12-26T09:03:14;100762.56;;;7.90;100.00
48790;BME280;41718;51.980;5.734;2022-12-26T09:08:18;100754.03;;;7.92;100.00
48790;BME280;41718;51.980;5.734;2022-12-26T09:13:20;100754.22;;;8.00;100.00
48790;BME280;41718;51.980;5.734;2022-12-26T09:18:23;100754.44;;;8.11;100.00
48790;BME280;41718;51.980;5.734;2022-12-26T09:23:24;100758.88;;;8.16;100.00
48790;BME280;41718;51.980;5.734;2022-12-26T09:28:27;100776.91;;;8.16;100.00
48790;BME280;41718;51.980;5.734;2022-12-26T09:33:30;100774.41;;;8.19;100.00
48790;BME280;41718;51.980;5.734;2022-12-26T09:38:34;100802.66;;;8.15;100.00
48790;BME280;41718;51.980;5.734;2022-12-26T09:44:07;100807.66;;;8.09;100.00
48790;BME280;41718;51.980;5.734;2022-12-26T09:49:23;100830.81;;;8.07;100.00
48790;BME280;41718;51.980;5.734;2022-12-26T09:54:48;100841.84;;;8.02;100.00
48790;BME280;41718;51.980;5.734;2022-12-26T09:59:55;100867.47;;;7.97;100.00
48790;BME280;41718;51.980;5.734;2022-12-26T10:04:58;100878.53;;;7.93;100.00
48790;BME280;41718;51.980;5.734;2022-12-26T10:10:12;100893.63;;;7.79;100.00
48790;BME280;41718;51.980;5.734;2022-12-26T10:15:28;100893.59;;;7.78;100.00
48790;BME280;41718;51.980;5.734;2022-12-26T10:26:07;100903.22;;;7.85;100.00
48790;BME280;41718;51.980;5.734;2022-12-26T10:31:17;100922.69;;;7.75;100.00
48790;BME280;41718;51.980;5.734;2022-12-26T10:36:34;100942.41;;;7.75;100.00
48790;BME280;41718;51.980;5.734;2022-12-26T10:42:02;100961.84;;;7.63;100.00
48790;BME280;41718;51.980;5.734;2022-12-26T10:47:18;100975.81;;;7.14;100.00
48790;BME280;41718;51.980;5.734;2022-12-26T10:52:31;100998.16;;;6.88;100.00
48790;BME280;41718;51.980;5.734;2022-12-26T10:57:35;101008.22;;;6.81;100.00
48790;BME280;41718;51.980;5.734;2022-12-26T11:02:37;101018.50;;;6.81;100.00
48790;BME280;41718;51.980;5.734;2022-12-26T11:07:49;101022.09;;;6.60;100.00
48790;BME280;41718;51.980;5.734;2022-12-26T11:12:56;101037.31;;;6.54;100.00
48790;BME280;41718;51.980;5.734;2022-12-26T11:23:37;101061.16;;;6.50;100.00
48790;BME280;41718;51.980;5.734;2022-12-26T11:28:38;101062.75;;;6.47;100.00
48790;BME280;41718;51.980;5.734;2022-12-26T11:33:41;101073.75;;;6.43;100.00
48790;BME280;41718;51.980;5.734;2022-12-26T11:38:50;101088.88;;;6.35;100.00
48790;BME280;41718;51.980;5.734;2022-12-26T11:43:53;101106.63;;;6.29;100.00
48790;BME280;41718;51.980;5.734;2022-12-26T11:48:56;101114.03;;;6.20;100.00
48790;BME280;41718;51.980;5.734;2022-12-26T11:54:27;101127.63;;;6.17;100.00
48790;BME280;41718;51.980;5.734;2022-12-26T11:59:31;101137.78;;;6.14;100.00
48790;BME280;41718;51.980;5.734;2022-12-26T12:04:33;101146.59;;;6.21;100.00
48790;BME280;41718;51.980;5.734;2022-12-26T12:20:26;101176.59;;;6.22;100.00
48790;BME280;41718;51.980;5.734;2022-12-26T12:36:07;101220.38;;;6.02;100.00
48790;BME280;41718;51.980;5.734;2022-12-26T12:41:24;101249.06;;;6.13;100.00
48790;BME280;41718;51.980;5.734;2022-12-26T12:52:18;101251.38;;;6.07;100.00
48790;BME280;41718;51.980;5.734;2022-12-26T12:57:51;101262.56;;;5.88;100.00
48790;BME280;41718;51.980;5.734;2022-12-26T13:03:03;101265.66;;;5.79;100.00
48790;BME280;41718;51.980;5.734;2022-12-26T13:13:53;101277.22;;;5.70;100.00
48790;BME280;41718;51.980;5.734;2022-12-26T13:19:05;101287.47;;;5.70;100.00
48790;BME280;41718;51.980;5.734;2022-12-26T13:29:45;101306.00;;;5.63;100.00
48790;BME280;41718;51.980;5.734;2022-12-26T13:34:48;101318.44;;;5.53;100.00
48790;BME280;41718;51.980;5.734;2022-12-26T13:39:51;101319.13;;;5.49;100.00
48790;BME280;41718;51.980;5.734;2022-12-26T13:44:53;101317.41;;;5.50;100.00
48790;BME280;41718;51.980;5.734;2022-12-26T13:49:55;101332.84;;;5.30;100.00
48790;BME280;41718;51.980;5.734;2022-12-26T14:05:36;101362.88;;;5.14;100.00
48790;BME280;41718;51.980;5.734;2022-12-26T14:16:19;101374.09;;;4.98;100.00
48790;BME280;41718;51.980;5.734;2022-12-26T14:37:53;101392.94;;;4.98;100.00
48790;BME280;41718;51.980;5.734;2022-12-26T14:43:22;101404.22;;;5.02;100.00
48790;BME280;41718;51.980;5.734;2022-12-26T14:53:34;101423.19;;;4.88;100.00
48790;BME280;41718;51.980;5.734;2022-12-26T14:58:47;101432.44;;;4.84;100.00
48790;BME280;41718;51.980;5.734;2022-12-26T15:14:45;101468.91;;;4.61;100.00
48790;BME280;41718;51.980;5.734;2022-12-26T15:25:22;101478.91;;;4.38;100.00
48790;BME280;41718;51.980;5.734;2022-12-26T15:36:03;101496.22;;;4.10;100.00
48790;BME280;41718;51.980;5.734;2022-12-26T15:41:15;101507.09;;;4.06;100.00
48790;BME280;41718;51.980;5.734;2022-12-26T15:46:33;101523.31;;;3.90;100.00
48790;BME280;41718;51.980;5.734;2022-12-26T15:51:58;101515.25;;;3.82;100.00
48790;BME280;41718;51.980;5.734;2022-12-26T16:02:28;101535.47;;;3.78;100.00
48790;BME280;41718;51.980;5.734;2022-12-26T16:07:45;101544.44;;;3.69;100.00
48790;BME280;41718;51.980;5.734;2022-12-26T16:12:58;101554.91;;;3.58;100.00
48790;BME280;41718;51.980;5.734;2022-12-26T16:18:19;101552.56;;;3.46;100.00
48790;BME280;41718;51.980;5.734;2022-12-26T16:23:24;101557.06;;;3.35;100.00
48790;BME280;41718;51.980;5.734;2022-12-26T16:28:34;101566.16;;;3.30;100.00
48790;BME280;41718;51.980;5.734;2022-12-26T16:33:39;101562.94;;;3.18;100.00
48790;BME280;41718;51.980;5.734;2022-12-26T16:38:43;101571.22;;;3.14;100.00
48790;BME280;41718;51.980;5.734;2022-12-26T16:43:45;101577.72;;;3.09;100.00
48790;BME280;41718;51.980;5.734;2022-12-26T16:48:57;101583.09;;;2.99;100.00
48790;BME280;41718;51.980;5.734;2022-12-26T16:59:22;101584.16;;;2.87;100.00
48790;BME280;41718;51.980;5.734;2022-12-26T17:04:28;101591.16;;;2.90;100.00
48790;BME280;41718;51.980;5.734;2022-12-26T17:09:43;101600.22;;;2.85;100.00
48790;BME280;41718;51.980;5.734;2022-12-26T17:14:47;101606.19;;;2.85;100.00
48790;BME280;41718;51.980;5.734;2022-12-26T17:19:52;101606.78;;;2.66;100.00
48790;BME280;41718;51.980;5.734;2022-12-26T17:30:32;101620.47;;;2.67;100.00
48790;BME280;41718;51.980;5.734;2022-12-26T17:35:33;101616.19;;;2.53;100.00
48790;BME280;41718;51.980;5.734;2022-12-26T17:41:01;101616.06;;;2.36;100.00
48790;BME280;41718;51.980;5.734;2022-12-26T17:46:07;101621.88;;;2.34;100.00
48790;BME280;41718;51.980;5.734;2022-12-26T17:51:14;101627.00;;;2.21;100.00
48790;BME280;41718;51.980;5.734;2022-12-26T17:56:19;101632.31;;;2.24;100.00
48790;BME280;41718;51.980;5.734;2022-12-26T18:01:22;101621.28;;;2.10;100.00
48790;BME280;41718;51.980;5.734;2022-12-26T18:06:27;101634.56;;;2.19;100.00
48790;BME280;41718;51.980;5.734;2022-12-26T18:11:31;101634.56;;;2.19;100.00
48790;BME280;41718;51.980;5.734;2022-12-26T18:16:33;101638.72;;;2.17;100.00
48790;BME280;41718;51.980;5.734;2022-12-26T18:21:35;101651.94;;;2.25;100.00
48790;BME280;41718;51.980;5.734;2022-12-26T18:26:36;101655.66;;;2.30;100.00
48790;BME280;41718;51.980;5.734;2022-12-26T18:31:40;101668.13;;;2.25;100.00
48790;BME280;41718;51.980;5.734;2022-12-26T18:36:42;101670.88;;;2.28;100.00
48790;BME280;41718;51.980;5.734;2022-12-26T18:41:44;101674.25;;;2.55;100.00
48790;BME280;41718;51.980;5.734;2022-12-26T18:46:46;101692.75;;;2.66;100.00
48790;BME280;41718;51.980;5.734;2022-12-26T18:51:50;101691.34;;;2.71;100.00
48790;BME280;41718;51.980;5.734;2022-12-26T18:56:52;101691.63;;;2.76;100.00
48790;BME280;41718;51.980;5.734;2022-12-26T19:01:53;101698.13;;;2.71;100.00
48790;BME280;41718;51.980;5.734;2022-12-26T19:06:55;101701.56;;;2.71;100.00
48790;BME280;41718;51.980;5.734;2022-12-26T19:11:59;101722.81;;;2.70;100.00
48790;BME280;41718;51.980;5.734;2022-12-26T19:17:01;101723.00;;;2.73;100.00
48790;BME280;41718;51.980;5.734;2022-12-26T19:22:03;101727.63;;;2.65;100.00
48790;BME280;41718;51.980;5.734;2022-12-26T19:27:05;101733.91;;;2.71;100.00
48790;BME280;41718;51.980;5.734;2022-12-26T19:32:07;101738.22;;;2.72;100.00
48790;BME280;41718;51.980;5.734;2022-12-26T19:37:09;101737.47;;;2.59;100.00
48790;BME280;41718;51.980;5.734;2022-12-26T19:42:10;101755.22;;;2.71;100.00
48790;BME280;41718;51.980;5.734;2022-12-26T19:47:12;101764.03;;;2.76;100.00
48790;BME280;41718;51.980;5.734;2022-12-26T19:52:14;101778.19;;;2.84;100.00
48790;BME280;41718;51.980;5.734;2022-12-26T19:57:16;101774.75;;;2.71;100.00
48790;BME280;41718;51.980;5.734;2022-12-26T20:02:17;101761.53;;;2.63;100.00
48790;BME280;41718;51.980;5.734;2022-12-26T20:07:19;101774.38;;;2.64;100.00
48790;BME280;41718;51.980;5.734;2022-12-26T20:12:21;101779.38;;;2.76;100.00
48790;BME280;41718;51.980;5.734;2022-12-26T20:17:22;101761.47;;;2.76;100.00
48790;BME280;41718;51.980;5.734;2022-12-26T20:22:25;101773.47;;;2.77;100.00
48790;BME280;41718;51.980;5.734;2022-12-26T20:27:27;101770.41;;;2.83;100.00
48790;BME280;41718;51.980;5.734;2022-12-26T20:32:29;101774.25;;;2.76;100.00
48790;BME280;41718;51.980;5.734;2022-12-26T20:37:30;101773.38;;;2.76;100.00
48790;BME280;41718;51.980;5.734;2022-12-26T20:42:32;101781.09;;;2.62;100.00
48790;BME280;41718;51.980;5.734;2022-12-26T20:47:36;101773.56;;;2.51;100.00
48790;BME280;41718;51.980;5.734;2022-12-26T20:52:37;101787.78;;;2.47;100.00
48790;BME280;41718;51.980;5.734;2022-12-26T20:57:41;101799.47;;;2.44;100.00
48790;BME280;41718;51.980;5.734;2022-12-26T21:02:43;101804.00;;;2.48;100.00
48790;BME280;41718;51.980;5.734;2022-12-26T21:07:45;101802.50;;;2.38;100.00
48790;BME280;41718;51.980;5.734;2022-12-26T21:12:50;101813.31;;;2.47;100.00
48790;BME280;41718;51.980;5.734;2022-12-26T21:17:51;101825.00;;;2.44;100.00
48790;BME280;41718;51.980;5.734;2022-12-26T21:22:56;101823.44;;;2.32;100.00
48790;BME280;41718;51.980;5.734;2022-12-26T21:28:06;101822.19;;;2.39;100.00
48790;BME280;41718;51.980;5.734;2022-12-26T21:33:07;101827.00;;;2.34;100.00
48790;BME280;41718;51.980;5.734;2022-12-26T21:38:32;101833.06;;;2.23;100.00
48790;BME280;41718;51.980;5.734;2022-12-26T21:44:17;101828.84;;;2.10;100.00
48790;BME280;41718;51.980;5.734;2022-12-26T21:49:36;101846.72;;;2.24;100.00
48790;BME280;41718;51.980;5.734;2022-12-26T21:54:38;101846.72;;;2.24;100.00
48790;BME280;41718;51.980;5.734;2022-12-26T22:00:02;101856.34;;;2.28;100.00
48790;BME280;41718;51.980;5.734;2022-12-26T22:05:04;101854.88;;;2.18;100.00
48790;BME280;41718;51.980;5.734;2022-12-26T22:10:06;101852.72;;;2.11;100.00
48790;BME280;41718;51.980;5.734;2022-12-26T22:15:09;101860.63;;;2.02;100.00
48790;BME280;41718;51.980;5.734;2022-12-26T22:20:32;101869.94;;;1.89;100.00
48790;BME280;41718;51.980;5.734;2022-12-26T22:25:34;101875.75;;;1.99;100.00
48790;BME280;41718;51.980;5.734;2022-12-26T22:30:35;101880.25;;;2.03;100.00
48790;BME280;41718;51.980;5.734;2022-12-26T22:35:37;101887.50;;;1.97;100.00
48790;BME280;41718;51.980;5.734;2022-12-26T22:40:39;101886.13;;;1.89;100.00
48790;BME280;41718;51.980;5.734;2022-12-26T22:45:41;101898.88;;;1.89;100.00
48790;BME280;41718;51.980;5.734;2022-12-26T22:50:44;101885.03;;;1.85;100.00
48790;BME280;41718;51.980;5.734;2022-12-26T22:55:47;101892.63;;;1.97;100.00
48790;BME280;41718;51.980;5.734;2022-12-26T23:00:49;101898.13;;;2.03;100.00
48790;BME280;41718;51.980;5.734;2022-12-26T23:05:51;101905.28;;;1.96;100.00
48790;BME280;41718;51.980;5.734;2022-12-26T23:10:55;101898.72;;;1.99;100.00
48790;BME280;41718;51.980;5.734;2022-12-26T23:16:07;101909.03;;;2.01;100.00
48790;BME280;41718;51.980;5.734;2022-12-26T23:21:23;101912.69;;;2.04;100.00
48790;BME280;41718;51.980;5.734;2022-12-26T23:26:47;101914.97;;;1.88;100.00
48790;BME280;41718;51.980;5.734;2022-12-26T23:31:49;101915.97;;;2.03;100.00
48790;BME280;41718;51.980;5.734;2022-12-26T23:36:51;101908.78;;;1.84;100.00
48790;BME280;41718;51.980;5.734;2022-12-26T23:41:53;101918.50;;;1.90;100.00
48790;BME280;41718;51.980;5.734;2022-12-26T23:46:56;101915.31;;;2.06;100.00
48790;BME280;41718;51.980;5.734;2022-12-26T23:51:57;101910.22;;;2.19;100.00
48790;BME280;41718;51.980;5.734;2022-12-26T23:56:59;101902.56;;;2.19;100.00
